createdAt,value
2023-05-06T00:03:13.609Z,12.70
2023-05-06T00:14:08.671Z,12.42
2023-05-06T00:25:06.035Z,12.44
2023-05-06T00:35:53.836Z,12.41
2023-05-06T00:46:43.269Z,12.36
2023-05-06T00:57:31.063Z,12.28
2023-05-06T01:08:28.466Z,12.34
2023-05-06T01:19:23.652Z,12.51
2023-05-06T01:30:07.070Z,12.37
2023-05-06T01:40:43.477Z,12.44
2023-05-06T01:51:32.603Z,12.69
2023-05-06T02:02:20.082Z,12.81
2023-05-06T02:12:57.795Z,12.92
2023-05-06T02:23:54.299Z,13.24
2023-05-06T02:34:48.550Z,13.25
2023-05-06T02:45:39.498Z,13.06
2023-05-06T02:56:35.342Z,13.03
2023-05-06T03:07:27.758Z,12.88
2023-05-06T03:18:20.486Z,12.69
2023-05-06T03:29:12.494Z,12.60
2023-05-06T03:40:00.486Z,12.55
2023-05-06T03:50:55.099Z,12.28
2023-05-06T04:01:49.470Z,12.33
2023-05-06T04:12:46.244Z,12.33
2023-05-06T04:23:39.845Z,12.51
2023-05-06T04:34:32.965Z,12.73
2023-05-06T04:45:24.296Z,13.14
2023-05-06T04:56:19.475Z,13.44
2023-05-06T05:07:17.551Z,14.02
2023-05-06T05:18:14.786Z,14.20
2023-05-06T05:29:01.129Z,14.47
2023-05-06T05:39:46.825Z,14.52
2023-05-06T05:50:23.129Z,14.64
2023-05-06T06:01:17.516Z,15.12
2023-05-06T06:11:53.601Z,15.76
2023-05-06T06:22:50.673Z,15.81
2023-05-06T06:33:34.434Z,15.91
2023-05-06T06:44:25.550Z,16.29
2023-05-06T06:55:20.929Z,16.57
2023-05-06T07:06:18.292Z,16.85
2023-05-06T07:17:14.545Z,17.18
2023-05-06T07:28:11.582Z,17.44
2023-05-06T07:38:45.359Z,17.58
2023-05-06T07:49:19.690Z,17.85
2023-05-06T07:59:53.484Z,18.46
2023-05-06T08:10:47.131Z,18.95
2023-05-06T08:21:22.710Z,19.50
2023-05-06T08:32:16.658Z,20.38
2023-05-06T08:43:10.940Z,21.14
2023-05-06T08:53:58.957Z,21.49
2023-05-06T09:04:47.317Z,22.20
2023-05-06T09:15:39.291Z,22.37
2023-05-06T09:26:34.348Z,22.84
2023-05-06T09:37:27.852Z,23.17
2023-05-06T09:48:17.008Z,23.65
2023-05-06T09:59:01.680Z,24.10
2023-05-06T10:09:48.911Z,23.64
2023-05-06T10:20:21.854Z,23.90
2023-05-06T10:31:17.024Z,24.02
2023-05-06T10:42:09.258Z,25.04
2023-05-06T10:52:47.884Z,24.40
2023-05-06T11:03:41.213Z,24.85
2023-05-06T11:14:29.311Z,23.87
2023-05-06T11:25:16.686Z,23.93
2023-05-06T11:36:17.689Z,25.23
2023-05-06T11:47:09.477Z,24.56
2023-05-06T11:58:05.432Z,23.97
2023-05-06T12:08:58.916Z,23.56
2023-05-06T12:19:53.908Z,25.92
2023-05-06T12:30:49.804Z,26.20
2023-05-06T12:41:43.409Z,26.47
2023-05-06T12:52:33.376Z,28.81
2023-05-06T13:03:19.539Z,28.36
2023-05-06T13:14:11.679Z,25.49
2023-05-06T13:25:01.763Z,28.47
2023-05-06T13:35:50.219Z,30.90
2023-05-06T13:46:22.850Z,28.28
2023-05-06T13:56:54.759Z,27.12
2023-05-06T14:07:53.353Z,29.18
2023-05-06T14:18:47.174Z,28.69
2023-05-06T14:29:23.624Z,29.40
2023-05-06T14:40:20.215Z,26.83
2023-05-06T14:51:17.354Z,28.78
2023-05-06T15:02:14.901Z,27.05
2023-05-06T15:12:59.198Z,25.46
2023-05-06T15:23:51.599Z,24.88
2023-05-06T15:34:47.710Z,24.02
2023-05-06T15:45:39.850Z,22.89
2023-05-06T15:56:41.100Z,22.67
2023-05-06T16:07:37.063Z,22.15
2023-05-06T16:18:24.240Z,21.21
2023-05-06T16:29:12.190Z,20.79
2023-05-06T16:40:05.804Z,19.20
2023-05-06T16:50:57.645Z,18.22
2023-05-06T17:01:36.738Z,17.55
2023-05-06T17:12:25.023Z,17.17
2023-05-06T17:23:15.791Z,17.08
2023-05-06T17:34:07.649Z,17.10
2023-05-06T17:44:58.866Z,16.90
2023-05-06T17:55:47.213Z,16.96
2023-05-06T18:06:33.789Z,16.88
2023-05-06T18:17:07.414Z,16.88
2023-05-06T18:28:05.245Z,16.75
2023-05-06T18:38:54.293Z,16.77
2023-05-06T18:49:45.969Z,16.65
2023-05-06T19:00:41.196Z,16.52
2023-05-06T19:11:31.807Z,16.44
2023-05-06T19:22:25.088Z,16.45
2023-05-06T19:33:16.998Z,16.65
2023-05-06T19:44:08.099Z,16.60
2023-05-06T19:54:58.799Z,16.41
2023-05-06T20:05:44.056Z,16.47
2023-05-06T20:16:32.114Z,16.06
2023-05-06T20:27:27.172Z,16.04
2023-05-06T20:38:13.084Z,15.85
2023-05-06T20:49:03.827Z,15.67
2023-05-06T20:59:44.026Z,15.60
2023-05-06T21:10:30.535Z,15.45
2023-05-06T21:21:14.015Z,15.53
2023-05-06T21:31:49.865Z,15.39
2023-05-06T21:42:37.489Z,15.38
2023-05-06T21:53:35.163Z,15.27
2023-05-06T22:04:25.733Z,15.30
2023-05-06T22:15:11.015Z,15.27
2023-05-06T22:25:58.650Z,15.38
2023-05-06T22:36:50.529Z,15.27
2023-05-06T22:47:39.334Z,15.15
2023-05-06T22:58:28.363Z,15.31
2023-05-06T23:09:19.993Z,15.24
2023-05-06T23:20:17.283Z,15.31
2023-05-06T23:31:08.642Z,15.30
2023-05-06T23:41:58.952Z,15.31
2023-05-06T23:52:51.395Z,15.39
